sensor_id;sensor_type;location;lat;lon;timestamp;pressure;altitude;pressure_sealevel;temperature;humidity
63395;BME280;49531;-34.520;150.798;2023-12-29T00:02:13;100444.47;;;23.81;60.25
63395;BME280;49531;-34.520;150.798;2023-12-29T00:04:40;100440.09;;;23.80;59.88
63395;BME280;49531;-34.520;150.798;2023-12-29T00:07:08;100437.63;;;23.84;60.15
63395;BME280;49531;-34.520;150.798;2023-12-29T00:09:35;100449.34;;;23.84;60.44
63395;BME280;49531;-34.520;150.798;2023-12-29T00:12:07;100448.75;;;23.87;60.18
63395;BME280;49531;-34.520;150.798;2023-12-29T00:14:39;100438.44;;;23.84;59.96
63395;BME280;49531;-34.520;150.798;2023-12-29T00:17:06;100435.41;;;23.86;60.16
63395;BME280;49531;-34.520;150.798;2023-12-29T00:19:33;100439.81;;;23.82;60.17
63395;BME280;49531;-34.520;150.798;2023-12-29T00:22:00;100433.56;;;23.81;60.34
63395;BME280;49531;-34.520;150.798;2023-12-29T00:24:30;100431.41;;;23.78;60.17
63395;BME280;49531;-34.520;150.798;2023-12-29T00:27:00;100428.69;;;23.78;60.32
63395;BME280;49531;-34.520;150.798;2023-12-29T00:29:28;100427.03;;;23.77;60.59
63395;BME280;49531;-34.520;150.798;2023-12-29T00:31:59;100434.94;;;23.79;60.59
63395;BME280;49531;-34.520;150.798;2023-12-29T00:34:29;100431.41;;;23.78;60.66
63395;BME280;49531;-34.520;150.798;2023-12-29T00:36:56;100425.38;;;23.81;60.55
63395;BME280;49531;-34.520;150.798;2023-12-29T00:39:23;100426.47;;;23.80;60.72
63395;BME280;49531;-34.520;150.798;2023-12-29T00:41:55;100423.16;;;23.83;60.81
63395;BME280;49531;-34.520;150.798;2023-12-29T00:44:23;100419.28;;;23.89;60.84
63395;BME280;49531;-34.520;150.798;2023-12-29T00:46:50;100414.88;;;23.93;60.43
63395;BME280;49531;-34.520;150.798;2023-12-29T00:49:17;100414.06;;;23.93;60.60
63395;BME280;49531;-34.520;150.798;2023-12-29T00:51:45;100420.91;;;23.90;60.90
63395;BME280;49531;-34.520;150.798;2023-12-29T00:54:12;100420.91;;;23.90;60.83
63395;BME280;49531;-34.520;150.798;2023-12-29T00:56:39;100429.09;;;23.90;61.08
63395;BME280;49531;-34.520;150.798;2023-12-29T00:59:06;100430.19;;;23.89;61.01
63395;BME280;49531;-34.520;150.798;2023-12-29T01:01:34;100423.13;;;23.88;60.74
63395;BME280;49531;-34.520;150.798;2023-12-29T01:04:02;100419.53;;;23.93;60.61
63395;BME280;49531;-34.520;150.798;2023-12-29T01:06:29;100425.78;;;23.93;60.56
63395;BME280;49531;-34.520;150.798;2023-12-29T01:08:56;100426.53;;;23.99;60.62
63395;BME280;49531;-34.520;150.798;2023-12-29T01:11:24;100430.13;;;23.94;61.02
63395;BME280;49531;-34.520;150.798;2023-12-29T01:13:51;100428.00;;;23.91;60.90
63395;BME280;49531;-34.520;150.798;2023-12-29T01:16:18;100419.28;;;23.89;60.77
63395;BME280;49531;-34.520;150.798;2023-12-29T01:18:45;100426.59;;;23.94;60.67
63395;BME280;49531;-34.520;150.798;2023-12-29T01:21:12;100415.44;;;23.90;60.67
63395;BME280;49531;-34.520;150.798;2023-12-29T01:23:39;100417.91;;;23.92;60.67
63395;BME280;49531;-34.520;150.798;2023-12-29T01:26:06;100415.41;;;23.96;60.71
63395;BME280;49531;-34.520;150.798;2023-12-29T01:28:34;100409.38;;;23.99;60.40
63395;BME280;49531;-34.520;150.798;2023-12-29T01:31:01;100412.66;;;23.96;60.90
63395;BME280;49531;-34.520;150.798;2023-12-29T01:33:28;100401.47;;;23.97;60.53
63395;BME280;49531;-34.520;150.798;2023-12-29T01:35:55;100394.09;;;23.98;60.55
63395;BME280;49531;-34.520;150.798;2023-12-29T01:38:22;100409.50;;;24.07;60.38
63395;BME280;49531;-34.520;150.798;2023-12-29T01:40:49;100393.44;;;24.06;60.38
63395;BME280;49531;-34.520;150.798;2023-12-29T01:43:16;100390.47;;;24.02;60.33
63395;BME280;49531;-34.520;150.798;2023-12-29T01:45:44;100394.28;;;24.01;60.47
63395;BME280;49531;-34.520;150.798;2023-12-29T01:48:11;100393.13;;;24.07;60.34
63395;BME280;49531;-34.520;150.798;2023-12-29T01:50:39;100381.56;;;23.97;60.79
63395;BME280;49531;-34.520;150.798;2023-12-29T01:53:07;100386.13;;;24.01;60.72
63395;BME280;49531;-34.520;150.798;2023-12-29T01:55:34;100395.41;;;24.00;60.91
63395;BME280;49531;-34.520;150.798;2023-12-29T01:58:05;100382.56;;;24.01;60.69
63395;BME280;49531;-34.520;150.798;2023-12-29T02:00:33;100384.19;;;24.02;60.67
63395;BME280;49531;-34.520;150.798;2023-12-29T02:03:00;100377.06;;;24.06;60.62
63395;BME280;49531;-34.520;150.798;2023-12-29T02:05:29;100379.84;;;24.01;60.45
63395;BME280;49531;-34.520;150.798;2023-12-29T02:07:57;100371.47;;;23.97;60.79
63395;BME280;49531;-34.520;150.798;2023-12-29T02:10:25;100368.06;;;24.05;60.40
63395;BME280;49531;-34.520;150.798;2023-12-29T02:12:52;100368.28;;;24.09;60.40
63395;BME280;49531;-34.520;150.798;2023-12-29T02:15:23;100356.63;;;24.03;60.34
63395;BME280;49531;-34.520;150.798;2023-12-29T02:18:02;100366.00;;;23.97;60.61
63395;BME280;49531;-34.520;150.798;2023-12-29T02:20:31;100359.28;;;23.89;60.85
63395;BME280;49531;-34.520;150.798;2023-12-29T02:22:58;100359.56;;;23.88;60.93
63395;BME280;49531;-34.520;150.798;2023-12-29T02:25:26;100354.91;;;23.88;60.82
63395;BME280;49531;-34.520;150.798;2023-12-29T02:28:04;100351.03;;;23.94;60.64
63395;BME280;49531;-34.520;150.798;2023-12-29T02:33:04;100356.56;;;24.08;60.27
63395;BME280;49531;-34.520;150.798;2023-12-29T02:35:34;100347.78;;;24.11;60.39
63395;BME280;49531;-34.520;150.798;2023-12-29T02:38:03;100341.34;;;24.02;60.32
63395;BME280;49531;-34.520;150.798;2023-12-29T02:40:30;100335.69;;;23.99;60.72
63395;BME280;49531;-34.520;150.798;2023-12-29T02:42:57;100329.44;;;23.98;60.92
63395;BME280;49531;-34.520;150.798;2023-12-29T02:45:27;100330.66;;;24.06;60.88
63395;BME280;49531;-34.520;150.798;2023-12-29T02:47:54;100340.53;;;24.02;61.08
63395;BME280;49531;-34.520;150.798;2023-12-29T02:50:22;100329.78;;;24.10;60.79
63395;BME280;49531;-34.520;150.798;2023-12-29T02:52:49;100336.59;;;24.13;60.46
63395;BME280;49531;-34.520;150.798;2023-12-29T02:55:16;100337.09;;;24.15;60.59
63395;BME280;49531;-34.520;150.798;2023-12-29T02:57:43;100347.84;;;24.06;60.90
63395;BME280;49531;-34.520;150.798;2023-12-29T03:00:11;100350.50;;;23.92;61.27
63395;BME280;49531;-34.520;150.798;2023-12-29T03:02:38;100338.34;;;24.04;61.07
63395;BME280;49531;-34.520;150.798;2023-12-29T03:05:05;100322.41;;;24.11;60.77
63395;BME280;49531;-34.520;150.798;2023-12-29T03:07:32;100326.78;;;24.12;60.93
63395;BME280;49531;-34.520;150.798;2023-12-29T03:09:59;100327.28;;;24.14;61.07
63395;BME280;49531;-34.520;150.798;2023-12-29T03:12:27;100331.19;;;24.08;61.52
63395;BME280;49531;-34.520;150.798;2023-12-29T03:14:55;100324.09;;;24.07;61.64
63395;BME280;49531;-34.520;150.798;2023-12-29T03:17:22;100314.00;;;24.07;61.56
63395;BME280;49531;-34.520;150.798;2023-12-29T03:19:49;100318.13;;;24.05;61.36
63395;BME280;49531;-34.520;150.798;2023-12-29T03:22:16;100315.41;;;24.05;61.32
63395;BME280;49531;-34.520;150.798;2023-12-29T03:24:43;100327.72;;;24.02;61.55
63395;BME280;49531;-34.520;150.798;2023-12-29T03:27:10;100345.47;;;24.00;61.63
63395;BME280;49531;-34.520;150.798;2023-12-29T03:29:37;100338.09;;;24.00;61.50
63395;BME280;49531;-34.520;150.798;2023-12-29T03:32:05;100307.44;;;24.08;61.72
63395;BME280;49531;-34.520;150.798;2023-12-29T03:34:33;100311.22;;;24.12;61.61
63395;BME280;49531;-34.520;150.798;2023-12-29T03:37:00;100305.47;;;24.14;61.36
63395;BME280;49531;-34.520;150.798;2023-12-29T03:39:27;100316.59;;;24.17;61.66
63395;BME280;49531;-34.520;150.798;2023-12-29T03:41:56;100309.16;;;24.23;61.40
63395;BME280;49531;-34.520;150.798;2023-12-29T03:44:23;100310.84;;;24.19;61.58
63395;BME280;49531;-34.520;150.798;2023-12-29T03:46:50;100269.09;;;24.18;61.56
63395;BME280;49531;-34.520;150.798;2023-12-29T03:49:17;100268.50;;;24.21;61.57
63395;BME280;49531;-34.520;150.798;2023-12-29T03:51:45;100295.00;;;24.21;61.30
63395;BME280;49531;-34.520;150.798;2023-12-29T03:54:12;100284.06;;;24.21;61.50
63395;BME280;49531;-34.520;150.798;2023-12-29T03:56:40;100301.84;;;24.18;62.12
63395;BME280;49531;-34.520;150.798;2023-12-29T03:59:07;100282.22;;;24.16;62.61
63395;BME280;49531;-34.520;150.798;2023-12-29T04:01:37;100263.94;;;24.17;61.87
63395;BME280;49531;-34.520;150.798;2023-12-29T04:04:04;100259.06;;;24.14;62.53
63395;BME280;49531;-34.520;150.798;2023-12-29T04:06:31;100260.19;;;24.13;62.44
63395;BME280;49531;-34.520;150.798;2023-12-29T04:08:58;100254.13;;;24.16;61.66
63395;BME280;49531;-34.520;150.798;2023-12-29T04:11:25;100241.59;;;24.15;61.93
63395;BME280;49531;-34.520;150.798;2023-12-29T04:13:53;100229.78;;;24.19;61.57
63395;BME280;49531;-34.520;150.798;2023-12-29T04:16:20;100202.81;;;24.18;61.67
63395;BME280;49531;-34.520;150.798;2023-12-29T04:18:47;100193.50;;;24.19;61.87
63395;BME280;49531;-34.520;150.798;2023-12-29T04:21:15;100173.38;;;24.15;61.75
63395;BME280;49531;-34.520;150.798;2023-12-29T04:23:42;100180.97;;;24.18;61.91
63395;BME280;49531;-34.520;150.798;2023-12-29T04:26:09;100197.84;;;24.20;62.19
63395;BME280;49531;-34.520;150.798;2023-12-29T04:28:36;100215.03;;;24.20;61.59
63395;BME280;49531;-34.520;150.798;2023-12-29T04:31:04;100232.75;;;24.23;61.61
63395;BME280;49531;-34.520;150.798;2023-12-29T04:33:31;100214.75;;;24.22;61.63
63395;BME280;49531;-34.520;150.798;2023-12-29T04:35:58;100218.06;;;24.19;62.22
63395;BME280;49531;-34.520;150.798;2023-12-29T04:38:25;100217.78;;;24.20;62.16
63395;BME280;49531;-34.520;150.798;2023-12-29T04:40:52;100219.97;;;24.18;61.92
63395;BME280;49531;-34.520;150.798;2023-12-29T04:43:20;100224.84;;;24.21;61.98
63395;BME280;49531;-34.520;150.798;2023-12-29T04:45:48;100230.56;;;24.25;62.10
63395;BME280;49531;-34.520;150.798;2023-12-29T04:48:15;100238.44;;;24.26;61.40
63395;BME280;49531;-34.520;150.798;2023-12-29T04:50:42;100253.19;;;24.25;62.13
63395;BME280;49531;-34.520;150.798;2023-12-29T04:53:09;100243.09;;;24.26;61.96
63395;BME280;49531;-34.520;150.798;2023-12-29T04:55:36;100230.00;;;24.23;62.11
63395;BME280;49531;-34.520;150.798;2023-12-29T04:58:04;100218.81;;;24.24;61.92
63395;BME280;49531;-34.520;150.798;2023-12-29T05:00:31;100208.44;;;24.26;62.18
63395;BME280;49531;-34.520;150.798;2023-12-29T05:02:58;100208.72;;;24.25;62.06
63395;BME280;49531;-34.520;150.798;2023-12-29T05:05:25;100208.13;;;24.28;62.14
63395;BME280;49531;-34.520;150.798;2023-12-29T05:07:52;100210.84;;;24.28;62.15
63395;BME280;49531;-34.520;150.798;2023-12-29T05:10:19;100213.28;;;24.30;62.35
63395;BME280;49531;-34.520;150.798;2023-12-29T05:12:46;100199.69;;;24.24;62.24
63395;BME280;49531;-34.520;150.798;2023-12-29T05:15:16;100185.47;;;24.27;62.16
63395;BME280;49531;-34.520;150.798;2023-12-29T05:17:43;100195.81;;;24.31;62.42
63395;BME280;49531;-34.520;150.798;2023-12-29T05:20:10;100190.56;;;24.34;62.11
63395;BME280;49531;-34.520;150.798;2023-12-29T05:22:37;100173.69;;;24.32;62.25
63395;BME280;49531;-34.520;150.798;2023-12-29T05:25:05;100169.31;;;24.31;62.40
63395;BME280;49531;-34.520;150.798;2023-12-29T05:27:32;100172.06;;;24.31;62.46
63395;BME280;49531;-34.520;150.798;2023-12-29T05:29:59;100154.06;;;24.30;62.23
63395;BME280;49531;-34.520;150.798;2023-12-29T05:32:26;100138.19;;;24.32;63.59
63395;BME280;49531;-34.520;150.798;2023-12-29T05:34:53;100131.47;;;24.24;62.97
63395;BME280;49531;-34.520;150.798;2023-12-29T05:37:20;100120.28;;;24.26;62.88
63395;BME280;49531;-34.520;150.798;2023-12-29T05:39:47;100115.63;;;24.26;62.63
63395;BME280;49531;-34.520;150.798;2023-12-29T05:42:14;100125.66;;;24.31;62.62
63395;BME280;49531;-34.520;150.798;2023-12-29T05:44:41;100128.59;;;24.35;63.07
63395;BME280;49531;-34.520;150.798;2023-12-29T05:47:09;100135.16;;;24.34;63.28
63395;BME280;49531;-34.520;150.798;2023-12-29T05:49:36;100135.03;;;24.25;63.26
63395;BME280;49531;-34.520;150.798;2023-12-29T05:52:06;100138.78;;;24.29;62.58
63395;BME280;49531;-34.520;150.798;2023-12-29T05:54:33;100152.22;;;24.25;62.83
63395;BME280;49531;-34.520;150.798;2023-12-29T05:57:01;100152.66;;;24.33;62.64
63395;BME280;49531;-34.520;150.798;2023-12-29T05:59:28;100154.47;;;24.37;62.73
63395;BME280;49531;-34.520;150.798;2023-12-29T06:01:55;100129.72;;;24.34;62.76
63395;BME280;49531;-34.520;150.798;2023-12-29T06:04:22;100114.94;;;24.35;62.90
63395;BME280;49531;-34.520;150.798;2023-12-29T06:06:49;100117.38;;;24.36;62.75
63395;BME280;49531;-34.520;150.798;2023-12-29T06:09:17;100126.06;;;24.38;63.01
63395;BME280;49531;-34.520;150.798;2023-12-29T06:11:44;100130.41;;;24.39;62.70
63395;BME280;49531;-34.520;150.798;2023-12-29T06:14:11;100129.09;;;24.37;62.46
63395;BME280;49531;-34.520;150.798;2023-12-29T06:16:38;100131.91;;;24.32;62.72
63395;BME280;49531;-34.520;150.798;2023-12-29T06:19:05;100136.28;;;24.33;62.27
63395;BME280;49531;-34.520;150.798;2023-12-29T06:21:32;100134.25;;;24.38;62.12
63395;BME280;49531;-34.520;150.798;2023-12-29T06:23:59;100126.88;;;24.39;62.60
63395;BME280;49531;-34.520;150.798;2023-12-29T06:26:26;100121.44;;;24.39;62.23
63395;BME280;49531;-34.520;150.798;2023-12-29T06:28:53;100118.69;;;24.39;62.22
63395;BME280;49531;-34.520;150.798;2023-12-29T06:31:20;100125.44;;;24.41;62.19
63395;BME280;49531;-34.520;150.798;2023-12-29T06:33:47;100119.81;;;24.38;62.28
63395;BME280;49531;-34.520;150.798;2023-12-29T06:36:14;100111.72;;;24.33;62.48
63395;BME280;49531;-34.520;150.798;2023-12-29T06:38:41;100109.88;;;24.28;62.44
63395;BME280;49531;-34.520;150.798;2023-12-29T06:41:12;100110.59;;;24.34;62.27
63395;BME280;49531;-34.520;150.798;2023-12-29T06:43:43;100107.44;;;24.40;62.13
63395;BME280;49531;-34.520;150.798;2023-12-29T06:46:10;100088.66;;;24.39;62.20
63395;BME280;49531;-34.520;150.798;2023-12-29T06:48:38;100073.06;;;24.39;62.36
63395;BME280;49531;-34.520;150.798;2023-12-29T06:51:06;100061.69;;;24.37;62.72
63395;BME280;49531;-34.520;150.798;2023-12-29T06:53:33;100058.81;;;24.42;62.51
63395;BME280;49531;-34.520;150.798;2023-12-29T06:56:00;100056.09;;;24.42;62.73
63395;BME280;49531;-34.520;150.798;2023-12-29T06:58:27;100059.63;;;24.43;62.75
63395;BME280;49531;-34.520;150.798;2023-12-29T07:00:54;100067.00;;;24.42;62.88
63395;BME280;49531;-34.520;150.798;2023-12-29T07:03:21;100058.31;;;24.40;63.01
63395;BME280;49531;-34.520;150.798;2023-12-29T07:05:48;100067.00;;;24.42;62.82
63395;BME280;49531;-34.520;150.798;2023-12-29T07:08:15;100085.50;;;24.45;62.81
63395;BME280;49531;-34.520;150.798;2023-12-29T07:10:42;100079.84;;;24.42;62.74
63395;BME280;49531;-34.520;150.798;2023-12-29T07:13:09;100074.28;;;24.47;62.76
63395;BME280;49531;-34.520;150.798;2023-12-29T07:15:36;100071.34;;;24.43;62.46
63395;BME280;49531;-34.520;150.798;2023-12-29T07:18:04;100077.03;;;24.47;62.56
63395;BME280;49531;-34.520;150.798;2023-12-29T07:20:31;100079.44;;;24.48;62.85
63395;BME280;49531;-34.520;150.798;2023-12-29T07:22:59;100078.13;;;24.46;62.70
63395;BME280;49531;-34.520;150.798;2023-12-29T07:25:27;100087.66;;;24.48;62.59
63395;BME280;49531;-34.520;150.798;2023-12-29T07:27:54;100084.72;;;24.45;62.90
63395;BME280;49531;-34.520;150.798;2023-12-29T07:30:21;100090.97;;;24.45;62.99
63395;BME280;49531;-34.520;150.798;2023-12-29T07:32:48;100089.97;;;24.41;63.50
63395;BME280;49531;-34.520;150.798;2023-12-29T07:35:15;100095.94;;;24.43;63.57
63395;BME280;49531;-34.520;150.798;2023-12-29T07:37:44;100092.91;;;24.45;63.96
63395;BME280;49531;-34.520;150.798;2023-12-29T07:40:11;100095.94;;;24.43;64.28
63395;BME280;49531;-34.520;150.798;2023-12-29T07:42:42;100099.25;;;24.40;64.22
63395;BME280;49531;-34.520;150.798;2023-12-29T07:45:10;100089.44;;;24.39;64.43
63395;BME280;49531;-34.520;150.798;2023-12-29T07:47:38;100087.66;;;24.35;64.75
63395;BME280;49531;-34.520;150.798;2023-12-29T07:50:05;100088.16;;;24.37;64.96
63395;BME280;49531;-34.520;150.798;2023-12-29T07:52:32;100080.28;;;24.35;65.01
63395;BME280;49531;-34.520;150.798;2023-12-29T07:54:59;100066.41;;;24.32;65.19
63395;BME280;49531;-34.520;150.798;2023-12-29T07:57:26;100042.25;;;24.25;65.27
63395;BME280;49531;-34.520;150.798;2023-12-29T07:59:54;100069.44;;;24.30;65.59
63395;BME280;49531;-34.520;150.798;2023-12-29T08:02:24;100093.25;;;24.24;65.47
63395;BME280;49531;-34.520;150.798;2023-12-29T08:04:51;100105.53;;;24.27;65.03
63395;BME280;49531;-34.520;150.798;2023-12-29T08:07:18;100084.22;;;24.29;65.20
63395;BME280;49531;-34.520;150.798;2023-12-29T08:09:45;100021.22;;;24.25;65.56
63395;BME280;49531;-34.520;150.798;2023-12-29T08:12:13;99995.31;;;24.23;65.71
63395;BME280;49531;-34.520;150.798;2023-12-29T08:14:40;100006.84;;;24.20;65.72
63395;BME280;49531;-34.520;150.798;2023-12-29T08:17:07;100041.50;;;24.19;65.54
63395;BME280;49531;-34.520;150.798;2023-12-29T08:19:35;100012.81;;;24.22;65.42
63395;BME280;49531;-34.520;150.798;2023-12-29T08:22:03;100024.75;;;24.26;65.80
63395;BME280;49531;-34.520;150.798;2023-12-29T08:24:30;100001.31;;;24.25;65.36
63395;BME280;49531;-34.520;150.798;2023-12-29T08:26:57;100011.47;;;24.19;65.32
63395;BME280;49531;-34.520;150.798;2023-12-29T08:29:24;99982.88;;;24.17;65.32
63395;BME280;49531;-34.520;150.798;2023-12-29T08:31:52;99983.69;;;24.17;65.70
63395;BME280;49531;-34.520;150.798;2023-12-29T08:34:19;99992.38;;;24.19;65.37
63395;BME280;49531;-34.520;150.798;2023-12-29T08:36:46;99988.53;;;24.20;65.31
63395;BME280;49531;-34.520;150.798;2023-12-29T08:39:13;99992.59;;;24.23;65.46
63395;BME280;49531;-34.520;150.798;2023-12-29T08:41:41;99986.03;;;24.24;65.63
63395;BME280;49531;-34.520;150.798;2023-12-29T08:44:08;99977.56;;;24.25;65.51
63395;BME280;49531;-34.520;150.798;2023-12-29T08:46:35;99987.38;;;24.26;65.08
63395;BME280;49531;-34.520;150.798;2023-12-29T08:49:02;99998.28;;;24.26;65.32
63395;BME280;49531;-34.520;150.798;2023-12-29T08:51:29;100002.13;;;24.25;65.37
63395;BME280;49531;-34.520;150.798;2023-12-29T08:53:56;100003.44;;;24.28;65.15
63395;BME280;49531;-34.520;150.798;2023-12-29T08:56:23;99996.66;;;24.25;65.44
63395;BME280;49531;-34.520;150.798;2023-12-29T08:58:51;100007.78;;;24.29;65.19
63395;BME280;49531;-34.520;150.798;2023-12-29T09:01:18;100023.16;;;24.25;65.35
63395;BME280;49531;-34.520;150.798;2023-12-29T09:03:46;100050.44;;;24.25;65.10
63395;BME280;49531;-34.520;150.798;2023-12-29T09:06:13;100071.72;;;24.23;65.69
63395;BME280;49531;-34.520;150.798;2023-12-29T09:08:40;100061.63;;;24.23;65.31
63395;BME280;49531;-34.520;150.798;2023-12-29T09:11:07;100062.72;;;24.22;65.49
63395;BME280;49531;-34.520;150.798;2023-12-29T09:13:34;100051.59;;;24.19;65.75
63395;BME280;49531;-34.520;150.798;2023-12-29T09:16:01;100055.06;;;24.24;65.48
63395;BME280;49531;-34.520;150.798;2023-12-29T09:18:28;100052.94;;;24.21;65.20
63395;BME280;49531;-34.520;150.798;2023-12-29T09:20:55;100054.53;;;24.22;65.16
63395;BME280;49531;-34.520;150.798;2023-12-29T09:23:22;100055.91;;;24.25;65.40
63395;BME280;49531;-34.520;150.798;2023-12-29T09:25:49;100067.09;;;24.23;65.46
63395;BME280;49531;-34.520;150.798;2023-12-29T09:28:16;100065.97;;;24.24;65.20
63395;BME280;49531;-34.520;150.798;2023-12-29T09:30:43;100070.41;;;24.20;65.05
63395;BME280;49531;-34.520;150.798;2023-12-29T09:33:10;100071.22;;;24.21;65.02
63395;BME280;49531;-34.520;150.798;2023-12-29T09:35:39;100086.56;;;24.17;65.28
63395;BME280;49531;-34.520;150.798;2023-12-29T09:38:06;100086.78;;;24.20;65.33
63395;BME280;49531;-34.520;150.798;2023-12-29T09:40:36;100085.47;;;24.18;65.23
63395;BME280;49531;-34.520;150.798;2023-12-29T09:43:03;100095.78;;;24.21;64.86
63395;BME280;49531;-34.520;150.798;2023-12-29T09:45:33;100105.38;;;24.18;65.54
63395;BME280;49531;-34.520;150.798;2023-12-29T09:48:07;100106.25;;;24.14;65.07
63395;BME280;49531;-34.520;150.798;2023-12-29T09:50:35;100119.09;;;24.13;65.21
63395;BME280;49531;-34.520;150.798;2023-12-29T09:53:03;100111.22;;;24.12;64.86
63395;BME280;49531;-34.520;150.798;2023-12-29T09:55:31;100108.78;;;24.10;65.01
63395;BME280;49531;-34.520;150.798;2023-12-29T09:58:01;100111.81;;;24.09;65.26
63395;BME280;49531;-34.520;150.798;2023-12-29T10:00:28;100114.84;;;24.07;65.04
63395;BME280;49531;-34.520;150.798;2023-12-29T10:02:56;100105.84;;;24.07;64.90
63395;BME280;49531;-34.520;150.798;2023-12-29T10:05:24;100117.47;;;24.12;64.67
63395;BME280;49531;-34.520;150.798;2023-12-29T10:07:53;100110.09;;;24.13;64.74
63395;BME280;49531;-34.520;150.798;2023-12-29T10:10:20;100100.59;;;24.10;64.99
63395;BME280;49531;-34.520;150.798;2023-12-29T10:12:51;100102.00;;;24.08;64.41
63395;BME280;49531;-34.520;150.798;2023-12-29T10:20:50;100114.03;;;24.07;64.47
63395;BME280;49531;-34.520;150.798;2023-12-29T10:24:16;100112.91;;;24.08;64.44
63395;BME280;49531;-34.520;150.798;2023-12-29T10:26:25;100112.41;;;24.06;64.56
63395;BME280;49531;-34.520;150.798;2023-12-29T10:28:53;100113.50;;;24.05;64.39
63395;BME280;49531;-34.520;150.798;2023-12-29T10:31:23;100111.59;;;24.05;64.28
63395;BME280;49531;-34.520;150.798;2023-12-29T10:33:51;100106.94;;;24.06;64.37
63395;BME280;49531;-34.520;150.798;2023-12-29T10:36:18;100117.34;;;24.04;64.75
63395;BME280;49531;-34.520;150.798;2023-12-29T10:38:45;100112.50;;;24.01;64.57
63395;BME280;49531;-34.520;150.798;2023-12-29T10:41:19;100106.22;;;24.00;64.61
63395;BME280;49531;-34.520;150.798;2023-12-29T10:43:47;100095.63;;;23.99;64.73
63395;BME280;49531;-34.520;150.798;2023-12-29T10:46:18;100093.00;;;23.93;64.48
63395;BME280;49531;-34.520;150.798;2023-12-29T10:48:47;100106.03;;;23.97;64.39
63395;BME280;49531;-34.520;150.798;2023-12-29T10:51:14;100095.22;;;23.91;64.39
63395;BME280;49531;-34.520;150.798;2023-12-29T10:53:42;100085.09;;;23.92;64.22
63395;BME280;49531;-34.520;150.798;2023-12-29T10:56:21;100091.16;;;23.89;64.46
63395;BME280;49531;-34.520;150.798;2023-12-29T10:59:00;100089.75;;;23.91;64.06
63395;BME280;49531;-34.520;150.798;2023-12-29T11:01:35;100079.22;;;23.85;64.21
63395;BME280;49531;-34.520;150.798;2023-12-29T11:04:03;100073.56;;;23.81;64.22
63395;BME280;49531;-34.520;150.798;2023-12-29T11:06:42;100086.09;;;23.82;63.95
63395;BME280;49531;-34.520;150.798;2023-12-29T11:09:11;100090.94;;;23.85;63.91
63395;BME280;49531;-34.520;150.798;2023-12-29T11:11:40;100082.75;;;23.85;64.04
63395;BME280;49531;-34.520;150.798;2023-12-29T11:14:10;100080.63;;;23.82;63.90
63395;BME280;49531;-34.520;150.798;2023-12-29T11:16:38;100079.00;;;23.81;63.87
63395;BME280;49531;-34.520;150.798;2023-12-29T11:19:07;100073.25;;;23.83;64.04
63395;BME280;49531;-34.520;150.798;2023-12-29T11:21:39;100067.88;;;23.78;63.82
63395;BME280;49531;-34.520;150.798;2023-12-29T11:24:09;100080.41;;;23.79;63.89
63395;BME280;49531;-34.520;150.798;2023-12-29T11:26:37;100082.84;;;23.80;63.62
63395;BME280;49531;-34.520;150.798;2023-12-29T11:29:05;100073.56;;;23.81;63.67
63395;BME280;49531;-34.520;150.798;2023-12-29T11:31:34;100072.53;;;23.77;63.52
63395;BME280;49531;-34.520;150.798;2023-12-29T11:34:07;100068.84;;;23.68;63.61
63395;BME280;49531;-34.520;150.798;2023-12-29T11:36:42;100065.22;;;23.73;63.67
63395;BME280;49531;-34.520;150.798;2023-12-29T11:39:33;100075.31;;;23.72;63.41
63395;BME280;49531;-34.520;150.798;2023-12-29T11:42:17;100076.94;;;23.73;63.30
63395;BME280;49531;-34.520;150.798;2023-12-29T11:44:46;100077.84;;;23.69;63.17
63395;BME280;49531;-34.520;150.798;2023-12-29T11:47:37;100098.25;;;23.71;63.16
63395;BME280;49531;-34.520;150.798;2023-12-29T11:50:05;100099.94;;;23.67;63.00
63395;BME280;49531;-34.520;150.798;2023-12-29T11:52:36;100092.06;;;23.66;62.98
63395;BME280;49531;-34.520;150.798;2023-12-29T11:55:12;100080.94;;;23.62;62.14
63395;BME280;49531;-34.520;150.798;2023-12-29T11:57:42;100081.44;;;23.64;62.22
63395;BME280;49531;-34.520;150.798;2023-12-29T12:00:11;100073.88;;;23.61;62.32
63395;BME280;49531;-34.520;150.798;2023-12-29T12:02:39;100078.03;;;23.58;62.40
63395;BME280;49531;-34.520;150.798;2023-12-29T12:05:09;100079.63;;;23.59;62.27
63395;BME280;49531;-34.520;150.798;2023-12-29T12:12:53;100082.97;;;23.56;62.01
63395;BME280;49531;-34.520;150.798;2023-12-29T12:17:57;100095.50;;;23.57;61.89
63395;BME280;49531;-34.520;150.798;2023-12-29T12:20:25;100094.16;;;23.55;61.91
63395;BME280;49531;-34.520;150.798;2023-12-29T12:23:11;100101.53;;;23.54;61.72
63395;BME280;49531;-34.520;150.798;2023-12-29T12:25:42;100081.69;;;23.49;61.88
63395;BME280;49531;-34.520;150.798;2023-12-29T12:28:10;100082.78;;;23.48;61.20
63395;BME280;49531;-34.520;150.798;2023-12-29T12:30:41;100088.00;;;23.44;61.51
63395;BME280;49531;-34.520;150.798;2023-12-29T12:33:08;100082.03;;;23.42;61.41
63395;BME280;49531;-34.520;150.798;2023-12-29T12:35:39;100087.50;;;23.42;61.54
63395;BME280;49531;-34.520;150.798;2023-12-29T12:38:11;100082.03;;;23.42;60.95
63395;BME280;49531;-34.520;150.798;2023-12-29T12:40:39;100081.22;;;23.42;61.24
63395;BME280;49531;-34.520;150.798;2023-12-29T12:43:07;100060.25;;;23.42;60.95